• Join FlightAware (Why Join?)
  • Login
  • US Flag 
06:58AM EDT


 

Airport Tracker/Info


-or-


 

Live Flight TrackerFlight Track Log ✈ DAL2352 ✈ 30-Sep-2013 ✈ KALB - KATL

Flight Track Log - Related Links

Times and Time Zones

All times are in EDT time to prevent confusion due to time zone crossing. See the DAL2352 flight status page for this flight to view local times or setup timezone preferences in your user account.

Time Position Orientation Groundspeed Altitude Reporting Facility
EDT Latitude Longitude Course Direction KTS MPH feet Rate Location/Type
06:31AM 42.7653 -73.8078 180° South 157 181 1,000  Level Boston Center
06:31AM 42.7681 -73.8058 27° Northeast 169 194 1,100 1,500 Climbing Boston Center
06:32AM 42.8231 -73.8217 348° North 226 260 2,700 2,100 Climbing Boston Center
06:32AM 42.8594 -73.8517 329° Northwest 244 281 4,500 2,640 Climbing Boston Center
06:33AM 42.5046 -74.1437 200° South  Level Estimated
06:33AM 42.9142 -73.9164 319° Northwest 275 316 7,000  Level Boston Center
06:34AM 42.4229 -74.2571 180° South  Level Estimated
06:34AM 42.9364 -74.0183 287° West 281 323 9,700  Level Boston Center
06:35AM 42.3410 -74.3701 191° South  Level Estimated
06:35AM 42.9364 -74.1392 270° West 327 376 11,400  Level Boston Center
06:36AM 42.2590 -74.4828 180° South  Level Estimated
06:37AM 42.8208 -74.1547 186° South 383 441 13,400  Level Boston Center
06:38AM 42.7106 -74.1292 170° South 403 464 15,600 1,560 Climbing Boston Center
06:39AM 42.5983 -74.1044 171° South 411 473 16,600 1,380 Climbing Boston Center
06:40AM 42.4850 -74.0808 171° South 413 475 18,400 1,800 Climbing Boston Center
06:41AM 42.3689 -74.0567 171° South 425 489 20,200 1,620 Climbing Boston Center
06:42AM 42.2475 -74.0331 172° South 439 505 21,700 1,440 Climbing Boston Center
06:43AM 42.1206 -74.0389 182° South 455 524 23,200 1,620 Climbing Boston Center
06:44AM 41.9931 -74.0497 184° South 459 528 25,100 1,800 Climbing Boston Center
06:45AM 41.8672 -74.0572 183° South 456 525 26,900 1,740 Climbing Boston Center
06:46AM 41.7264 -74.0667 183° South 444 511 28,700 1,380 Climbing Boston Center
06:47AM 41.6131 -74.1375 205° Southwest 450 518 29,800 1,020 Climbing Boston Center
06:48AM 41.5056 -74.2186 209° Southwest 447 514 30,800 780 Climbing Boston Center
06:49AM 41.3975 -74.3056 211° Southwest 454 522 31,400 660 Climbing Boston Center
06:50AM 41.3172 -74.3908 219° Southwest 461 531 32,200 840 Climbing Boston Center
06:51AM 41.2075 -74.5044 218° Southwest 456 525 33,100 840 Climbing Boston Center
06:52AM 41.0892 -74.6297 219° Southwest 454 522 34,000 420 Climbing Boston Center
06:53AM 40.9922 -74.7336 219° Southwest 451 519 34,000  Level Boston Center
06:54AM 40.8944 -74.8369 219° Southwest 451 519 34,000  Level Boston Center
06:55AM 40.7981 -74.9419 220° Southwest 451 519 34,000  Level Boston Center
06:56AM 40.7006 -75.0439 218° Southwest 449 517 34,000  Level Boston Center
06:57AM 40.6047 -75.1478 219° Southwest 450 518 34,000  Level Boston Center
06:58AM 40.5092 -75.2494 219° Southwest 445 512 34,000  Level Boston Center
06:59AM 40.4139 -75.3531 220° Southwest 447 514 34,000  Level Boston Center
07:00AM 40.3167 -75.4553 219° Southwest 450 518 34,000  Level Boston Center
07:01AM 40.1908 -75.6211 225° Southwest 461 531 34,000  Level New York Center
07:02AM 40.1206 -75.7575 236° Southwest 453 521 34,000  Level New York Center
07:04AM 39.9336 -76.0542 231° Southwest 447 514 34,000  Level Washington Center
07:05AM 39.8539 -76.1753 229° Southwest 447 514 34,000  Level Washington Center
07:07AM 39.7761 -76.3014 231° Southwest 447 514 34,000 -60 Level Washington Center
07:07AM 39.7003 -76.4275 232° Southwest 447 514 33,900  Descending Washington Center
07:08AM 39.6225 -76.5372 227° Southwest 447 514 34,000  Climbing Washington Center
07:10AM 39.5442 -76.6625 231° Southwest 453 521 34,000  Level Washington Center
07:11AM 39.4661 -76.7850 230° Southwest 453 521 34,000  Level Washington Center
07:11AM 39.3878 -76.9072 230° Southwest 453 521 34,000  Level Washington Center
07:12AM 39.3069 -77.0292 229° Southwest 453 521 34,000  Level Washington Center
07:13AM 39.2283 -77.1511 230° Southwest 453 521 34,000  Level Washington Center
07:14AM 39.1497 -77.2725 230° Southwest 453 521 34,000  Level Washington Center
07:16AM 39.0689 -77.3908 229° Southwest 453 521 34,000  Level Washington Center
07:16AM 38.9878 -77.5092 229° Southwest 453 521 34,000  Level Washington Center
07:17AM 38.9064 -77.6350 230° Southwest 453 521 34,000  Level Washington Center
07:18AM 38.8125 -77.7708 228° Southwest 453 521 34,000  Level Washington Center
07:20AM 38.7350 -77.8911 230° Southwest 453 521 34,000  Level Washington Center
07:20AM 38.6556 -78.0108 230° Southwest 448 516 34,000  Level Washington Center
07:21AM 38.5761 -78.1278 229° Southwest 448 516 34,000  Level Washington Center
07:22AM 38.4964 -78.2444 229° Southwest 448 516 34,000  Level Washington Center
07:23AM 38.4167 -78.3608 229° Southwest 448 516 34,000  Level Washington Center
07:24AM 38.3344 -78.4797 229° Southwest 448 516 34,000  Level Washington Center
07:25AM 38.2608 -78.5958 231° Southwest 442 509 34,000  Level Washington Center
07:26AM 38.1786 -78.7139 228° Southwest 442 509 34,000  Level Washington Center
07:28AM 38.0983 -78.8294 229° Southwest 442 509 34,000  Level Washington Center
07:29AM 38.0244 -78.9342 228° Southwest 442 509 34,000  Level Washington Center
07:29AM 37.9419 -79.0517 228° Southwest 448 516 34,000  Level Washington Center
07:30AM 37.8614 -79.1664 228° Southwest 448 516 34,000  Level Washington Center
07:31AM 37.7767 -79.2806 227° Southwest 448 516 34,000  Level Washington Center
07:32AM 37.6897 -79.3944 226° Southwest 453 521 34,000  Level Washington Center
07:33AM 37.6000 -79.5211 228° Southwest 453 521 34,000  Level Washington Center
07:34AM 37.5256 -79.6244 228° Southwest 453 521 34,000  Level Washington Center
07:35AM 37.4492 -79.7253 226° Southwest 448 516 34,000  Level Washington Center
07:36AM 37.3481 -79.8686 228° Southwest 454 522 34,000  Level Washington Center
07:37AM 37.2628 -79.9814 226° Southwest 454 522 34,000  Level Washington Center
07:38AM 37.1814 -80.0939 228° Southwest 454 522 34,000  Level Washington Center
07:40AM 37.0736 -80.2433 228° Southwest 450 518 34,000  Level Atlanta Center
07:41AM 36.9892 -80.3489 225° Southwest 441 507 34,000  Level Atlanta Center
07:42AM 36.9069 -80.4592 227° Southwest 435 501 34,000  Level Atlanta Center
07:43AM 36.8247 -80.5717 228° Southwest 435 501 34,000  Level Atlanta Center
07:44AM 36.7522 -80.6656 226° Southwest 430 495 34,000  Level Atlanta Center
07:45AM 36.6678 -80.7778 227° Southwest 436 502 34,000  Level Atlanta Center
07:46AM 36.5872 -80.8872 228° Southwest 436 502 34,000  Level Atlanta Center
07:47AM 36.5044 -80.9964 227° Southwest 436 502 34,000  Level Atlanta Center
07:48AM 36.4217 -81.1078 227° Southwest 431 496 34,000  Level Atlanta Center
07:49AM 36.3386 -81.2192 227° Southwest 431 496 34,000  Level Atlanta Center
07:50AM 36.2556 -81.3275 226° Southwest 437 503 34,000  Level Atlanta Center
07:51AM 36.1744 -81.4356 227° Southwest 431 496 34,000  Level Atlanta Center
07:52AM 36.0933 -81.5436 227° Southwest 431 496 34,000  Level Atlanta Center
07:53AM 36.0039 -81.6619 227° Southwest 436 502 34,000  Level Atlanta Center
07:54AM 35.9206 -81.7694 226° Southwest 436 502 34,000  Level Atlanta Center
07:55AM 35.8369 -81.8769 226° Southwest 436 502 34,000  Level Atlanta Center
07:56AM 35.7572 -81.9789 226° Southwest 431 496 34,000  Level Atlanta Center
07:57AM 35.6692 -82.0831 224° Southwest 431 496 34,000  Level Atlanta Center
07:58AM 35.5792 -82.1825 222° Southwest 431 496 34,000  Level Atlanta Center
07:59AM 35.4950 -82.2811 224° Southwest 431 496 34,000 -600 Level Atlanta Center
08:00AM 35.4067 -82.3825 223° Southwest 431 496 32,900 -1,140 Descending Atlanta Center
08:01AM 35.3222 -82.4758 222° Southwest 424 488 31,800 -1,260 Descending Atlanta Center
08:02AM 35.2339 -82.5767 223° Southwest 424 488 30,400 -1,260 Descending Atlanta Center
08:03AM 35.1472 -82.6672 221° Southwest 424 488 29,300 -1,200 Descending Atlanta Center
08:04AM 35.0544 -82.7728 223° Southwest 436 502 28,000 -1,200 Descending Atlanta Center
08:05AM 34.9636 -82.8728 222° Southwest 442 509 26,900 -1,080 Descending Atlanta Center
08:06AM 34.8686 -82.9781 222° Southwest 457 526 25,900 -900 Descending Atlanta Center
08:07AM 34.7839 -83.0675 221° Southwest 457 526 25,200 -660 Descending Atlanta Center
08:08AM 34.6928 -83.1722 223° Southwest 457 526 24,600 -600 Descending Atlanta Center
08:09AM 34.5994 -83.2717 221° Southwest 452 520 24,000 -300 Descending Atlanta Center
08:10AM 34.5103 -83.3733 223° Southwest 447 514 24,000 -660 Level Atlanta Center
08:11AM 34.4233 -83.4747 224° Southwest 442 509 22,700 -1,800 Descending Atlanta Center
08:12AM 34.3319 -83.5733 222° Southwest 442 509 20,500 -2,460 Descending Atlanta Center
08:13AM 34.2383 -83.6769 222° Southwest 432 497 17,800 -2,700 Descending Atlanta Center
08:14AM 34.1572 -83.7653 222° Southwest 411 473 15,200 -1,920 Descending Atlanta Center
08:15AM 34.0800 -83.8558 224° Southwest 399 459 14,000 -900 Descending Atlanta Center
08:16AM 34.0167 -83.9167 219° Southwest 386 444 13,700 -1,080 Descending Atlanta TRACON
08:17AM 33.9333 -84.0000 220° Southwest 364 419 12,100 -840 Descending Atlanta TRACON
08:18AM 33.8667 -84.0500 212° Southwest 311 358 12,100  Level Atlanta TRACON
08:19AM 33.7833 -84.1000 207° Southwest 307 353 12,100  Level Atlanta TRACON
08:20AM 33.7333 -84.1667 228° Southwest 304 350 12,100  Level Atlanta TRACON
08:21AM 33.7333 -84.2667 270° West 291 335 12,100 -300 Level Atlanta TRACON
08:22AM 33.7333 -84.3500 270° West 266 306 11,600 -900 Descending Atlanta TRACON
08:23AM 33.7333 -84.4333 270° West 243 280 10,300 -1,500 Descending Atlanta TRACON
08:24AM 33.7333 -84.5167 270° West 234 269 8,500 -1,800 Descending Atlanta TRACON
08:25AM 33.7333 -84.5833 270° West 235 270 6,900 -1,740 Descending Atlanta TRACON
08:26AM 33.7333 -84.6833 270° West 225 259 5,100 -960 Descending Atlanta TRACON
08:27AM 33.7333 -84.7500 270° West 227 261 5,000  Descending Atlanta TRACON
08:28AM 33.6833 -84.7500 180° South 196 226 5,100  Climbing Atlanta TRACON
08:29AM 33.6500 -84.7000 129° Southeast 197 227 5,100 -420 Level Atlanta TRACON
08:30AM 33.6500 -84.6333 90° East 196 226 4,300 -900 Descending Atlanta TRACON
08:31AM 33.6500 -84.5833 90° East 169 194 3,300 -960 Descending Atlanta TRACON
08:32AM 33.6500 -84.5167 90° East 146 168 2,300 -840 Descending Atlanta TRACON
08:33AM 33.6500 -84.4833 90° East 136 157 1,700 -720 Descending Atlanta TRACON